createdAt,value
2023-04-07T00:01:13.766Z,100927.22
2023-04-07T00:03:45.835Z,100924.41
2023-04-07T00:06:23.612Z,100921.16
2023-04-07T00:08:59.506Z,100926.38
2023-04-07T00:11:32.362Z,100921.59
2023-04-07T00:14:06.539Z,100914.00
2023-04-07T00:16:39.678Z,100911.50
2023-04-07T00:19:16.916Z,100907.06
2023-04-07T00:21:54.489Z,100914.75
2023-04-07T00:24:34.273Z,100906.63
2023-04-07T00:27:05.949Z,100911.41
2023-04-07T00:29:36.444Z,100917.03
2023-04-07T00:32:14.500Z,100910.97
2023-04-07T00:34:53.417Z,100903.28
2023-04-07T00:37:25.662Z,100912.97
2023-04-07T00:39:53.102Z,100905.63
2023-04-07T00:42:31.500Z,100905.63
2023-04-07T00:45:10.198Z,100909.22
2023-04-07T00:47:54.199Z,100912.53
2023-04-07T00:50:29.812Z,100908.06
2023-04-07T00:53:02.711Z,100910.38
2023-04-07T00:55:37.739Z,100903.09
2023-04-07T00:58:24.830Z,100899.91
2023-04-07T01:01:12.475Z,100901.50
2023-04-07T01:03:52.020Z,100898.66
2023-04-07T01:06:29.786Z,100896.28
2023-04-07T01:09:26.613Z,100890.66
2023-04-07T01:12:01.313Z,100893.16
2023-04-07T01:14:51.305Z,100888.31
2023-04-07T01:18:01.679Z,100881.13
2023-04-07T01:20:40.962Z,100890.53
2023-04-07T01:23:36.046Z,100887.31
2023-04-07T01:26:23.299Z,100884.94
2023-04-07T01:29:21.679Z,100878.84
2023-04-07T01:31:58.425Z,100885.25
2023-04-07T01:34:38.617Z,100887.28
2023-04-07T01:37:13.404Z,100879.63
2023-04-07T01:39:46.684Z,100883.72
2023-04-07T01:42:21.680Z,100884.94
2023-04-07T01:44:53.109Z,100881.75
2023-04-07T01:47:30.753Z,100892.69
2023-04-07T01:50:05.624Z,100887.06
2023-04-07T01:52:38.434Z,100885.06
2023-04-07T01:55:15.669Z,100878.22
2023-04-07T01:58:00.641Z,100887.59
2023-04-07T02:00:42.039Z,100887.53
2023-04-07T02:03:27.539Z,100883.50
2023-04-07T02:06:06.800Z,100881.53
2023-04-07T02:08:52.371Z,100883.06
2023-04-07T02:11:32.041Z,100875.41
2023-04-07T02:14:10.911Z,100879.03
2023-04-07T02:17:01.799Z,100877.41
2023-04-07T02:19:35.981Z,100876.63
2023-04-07T02:22:11.194Z,100878.63
2023-04-07T02:24:47.268Z,100881.88
2023-04-07T02:27:31.231Z,100877.03
2023-04-07T02:30:01.715Z,100874.19
2023-04-07T02:32:35.950Z,100886.66
2023-04-07T02:35:11.714Z,100877.00
2023-04-07T02:37:41.807Z,100879.84
2023-04-07T02:40:15.626Z,100872.94
2023-04-07T02:42:52.837Z,100876.56
2023-04-07T02:45:28.981Z,100882.22
2023-04-07T02:48:02.577Z,100880.66
2023-04-07T02:50:35.561Z,100878.31
2023-04-07T02:53:12.094Z,100881.91
2023-04-07T02:55:44.959Z,100885.91
2023-04-07T02:58:18.867Z,100878.56
2023-04-07T03:01:01.507Z,100879.28
2023-04-07T03:03:34.831Z,100871.44
2023-04-07T03:06:11.799Z,100878.25
2023-04-07T03:08:49.953Z,100874.97
2023-04-07T03:11:23.572Z,100864.88
2023-04-07T03:13:59.621Z,100869.66
2023-04-07T03:16:31.661Z,100863.59
2023-04-07T03:19:17.727Z,100875.16
2023-04-07T03:21:54.726Z,100874.78
2023-04-07T03:24:33.180Z,100876.41
2023-04-07T03:27:09.712Z,100876.75
2023-04-07T03:29:44.869Z,100876.69
2023-04-07T03:32:20.989Z,100877.47
2023-04-07T03:34:59.664Z,100862.91
2023-04-07T03:37:30.252Z,100864.59
2023-04-07T03:40:03.264Z,100859.31
2023-04-07T03:42:42.929Z,100860.88
2023-04-07T03:45:13.924Z,100854.47
2023-04-07T03:47:49.419Z,100860.88
2023-04-07T03:50:17.714Z,100869.03
2023-04-07T03:53:04.144Z,100866.56
2023-04-07T03:55:36.836Z,100862.13
2023-04-07T03:58:17.621Z,100850.38
2023-04-07T04:00:53.921Z,100853.19
2023-04-07T04:03:24.160Z,100858.44
2023-04-07T04:06:09.126Z,100857.25
2023-04-07T04:08:46.267Z,100856.00
2023-04-07T04:11:19.850Z,100855.56
2023-04-07T04:13:56.993Z,100861.69
2023-04-07T04:16:29.505Z,100854.44
2023-04-07T04:19:00.247Z,100857.22
2023-04-07T04:21:40.771Z,100852.34
2023-04-07T04:24:13.941Z,100858.34
2023-04-07T04:26:44.684Z,100859.22
2023-04-07T04:29:19.421Z,100860.44
2023-04-07T04:31:54.185Z,100854.41
2023-04-07T04:34:26.500Z,100860.03
2023-04-07T04:37:00.213Z,100865.66
2023-04-07T04:39:30.634Z,100872.84
2023-04-07T04:42:15.400Z,100868.81
2023-04-07T04:44:46.555Z,100862.31
2023-04-07T04:47:24.366Z,100865.09
2023-04-07T04:50:03.921Z,100865.19
2023-04-07T04:52:45.652Z,100862.38
2023-04-07T04:55:22.387Z,100862.38
2023-04-07T04:58:01.111Z,100866.81
2023-04-07T05:00:43.895Z,100872.84
2023-04-07T05:03:22.006Z,100872.06
2023-04-07T05:05:59.077Z,100871.69
2023-04-07T05:08:38.103Z,100876.56
2023-04-07T05:11:09.936Z,100878.47
2023-04-07T05:13:44.255Z,100870.88
2023-04-07T05:16:17.684Z,100866.00
2023-04-07T05:18:53.688Z,100870.81
2023-04-07T05:21:33.865Z,100868.81
2023-04-07T05:24:09.494Z,100866.41
2023-04-07T05:26:43.287Z,100865.19
2023-04-07T05:29:11.636Z,100862.41
2023-04-07T05:31:42.040Z,100859.28
2023-04-07T05:34:13.722Z,100859.16
2023-04-07T05:36:55.497Z,100862.91
2023-04-07T05:39:37.994Z,100861.72
2023-04-07T05:42:22.631Z,100852.75
2023-04-07T05:45:00.858Z,100849.56
2023-04-07T05:47:37.895Z,100853.28
2023-04-07T05:50:14.875Z,100846.91
2023-04-07T05:52:55.674Z,100850.66
2023-04-07T05:55:31.898Z,100848.69
2023-04-07T05:58:09.356Z,100843.47
2023-04-07T06:00:40.206Z,100845.13
2023-04-07T06:03:18.372Z,100845.53
2023-04-07T06:06:10.535Z,100849.97
2023-04-07T06:08:43.707Z,100846.41
2023-04-07T06:11:18.344Z,100850.91
2023-04-07T06:13:56.390Z,100847.59
2023-04-07T06:16:33.275Z,100839.78
2023-04-07T06:19:08.149Z,100838.59
2023-04-07T06:21:46.595Z,100832.16
2023-04-07T06:24:27.041Z,100832.63
2023-04-07T06:27:02.715Z,100834.66
2023-04-07T06:29:38.973Z,100838.44
2023-04-07T06:32:09.369Z,100840.41
2023-04-07T06:34:50.022Z,100832.91
2023-04-07T06:37:25.032Z,100834.56
2023-04-07T06:40:00.304Z,100832.84
2023-04-07T06:42:36.964Z,100840.50
2023-04-07T06:45:32.061Z,100838.47
2023-04-07T06:48:12.016Z,100840.00
2023-04-07T06:50:46.163Z,100849.47
2023-04-07T06:53:20.066Z,100845.59
2023-04-07T06:55:53.154Z,100840.13
2023-04-07T06:58:23.050Z,100843.50
2023-04-07T07:00:55.050Z,100840.63
2023-04-07T07:03:32.472Z,100846.00
2023-04-07T07:06:04.810Z,100832.22
2023-04-07T07:08:38.699Z,100843.03
2023-04-07T07:11:17.082Z,100851.63
2023-04-07T07:13:52.737Z,100844.44
2023-04-07T07:16:30.616Z,100840.78
2023-04-07T07:19:01.662Z,100842.28
2023-04-07T07:21:34.768Z,100834.31
2023-04-07T07:24:05.533Z,100847.09
2023-04-07T07:26:43.486Z,100847.28
2023-04-07T07:29:22.823Z,100839.25
2023-04-07T07:31:58.327Z,100833.09
2023-04-07T07:34:26.410Z,100832.84
2023-04-07T07:37:03.681Z,100834.28
2023-04-07T07:39:36.804Z,100834.97
2023-04-07T07:42:07.744Z,100840.13
2023-04-07T07:44:46.741Z,100840.56
2023-04-07T07:47:22.616Z,100843.25
2023-04-07T07:50:05.152Z,100834.19
2023-04-07T07:52:39.684Z,100844.69
2023-04-07T07:55:09.612Z,100840.94
2023-04-07T07:57:37.849Z,100843.94
2023-04-07T08:00:09.477Z,100846.41
2023-04-07T08:02:49.145Z,100848.44
2023-04-07T08:05:19.643Z,100849.22
2023-04-07T08:07:52.150Z,100841.13
2023-04-07T08:10:27.580Z,100842.75
2023-04-07T08:13:01.356Z,100846.41
2023-04-07T08:15:34.537Z,100852.47
2023-04-07T08:18:09.851Z,100855.31
2023-04-07T08:20:41.031Z,100848.81
2023-04-07T08:23:12.554Z,100851.53
2023-04-07T08:25:51.057Z,100852.84
2023-04-07T08:28:29.518Z,100847.53
2023-04-07T08:31:07.340Z,100858.09
2023-04-07T08:33:43.637Z,100862.56
2023-04-07T08:36:14.685Z,100858.94
2023-04-07T08:38:55.984Z,100864.59
2023-04-07T08:41:45.452Z,100862.97
2023-04-07T08:44:15.443Z,100859.34
2023-04-07T08:46:47.955Z,100862.56
2023-04-07T08:49:18.761Z,100853.66
2023-04-07T08:51:50.918Z,100852.06
2023-04-07T08:54:24.528Z,100849.19
2023-04-07T08:56:52.992Z,100851.22
2023-04-07T08:59:29.369Z,100843.41
2023-04-07T09:01:58.370Z,100839.75
2023-04-07T09:04:29.568Z,100838.28
2023-04-07T09:06:58.244Z,100838.53
2023-04-07T09:09:32.576Z,100835.38
2023-04-07T09:12:06.143Z,100838.66
2023-04-07T09:14:40.530Z,100837.09
2023-04-07T09:17:10.940Z,100829.41
2023-04-07T09:19:38.923Z,100826.56
2023-04-07T09:22:12.594Z,100829.78
2023-04-07T09:24:44.418Z,100822.50
2023-04-07T09:27:28.905Z,100827.41
2023-04-07T09:30:17.198Z,100812.81
2023-04-07T09:32:50.341Z,100812.78
2023-04-07T09:35:18.237Z,100815.19
2023-04-07T09:38:11.621Z,100812.38
2023-04-07T09:40:52.781Z,100809.56
2023-04-07T09:43:23.316Z,100806.31
2023-04-07T09:46:16.320Z,100809.97
2023-04-07T09:48:50.818Z,100808.75
2023-04-07T09:51:28.309Z,100806.75
2023-04-07T09:54:11.807Z,100804.31
2023-04-07T09:56:54.132Z,100795.41
2023-04-07T09:59:31.664Z,100799.03
2023-04-07T10:02:10.479Z,100796.97
2023-04-07T10:04:42.516Z,100790.91
2023-04-07T10:07:22.293Z,100796.53
2023-04-07T10:10:00.167Z,100788.91
2023-04-07T10:12:43.037Z,100781.63
2023-04-07T10:15:17.012Z,100787.31
2023-04-07T10:17:54.179Z,100790.16
2023-04-07T10:20:32.270Z,100786.53
2023-04-07T10:23:16.463Z,100777.22
2023-04-07T10:25:54.246Z,100780.44
2023-04-07T10:28:33.637Z,100776.00
2023-04-07T10:31:13.370Z,100773.56
2023-04-07T10:34:13.958Z,100767.91
2023-04-07T10:37:10.257Z,100773.19
2023-04-07T10:39:49.369Z,100777.97
2023-04-07T10:42:47.695Z,100777.53
2023-04-07T10:45:58.443Z,100782.00
2023-04-07T10:48:35.396Z,100758.53
2023-04-07T10:51:15.412Z,100762.22
2023-04-07T10:54:29.058Z,100758.16
2023-04-07T10:57:07.999Z,100760.53
2023-04-07T11:00:00.011Z,100765.78
2023-04-07T11:02:38.842Z,100762.16
2023-04-07T11:05:24.068Z,100759.31
2023-04-07T11:08:05.220Z,100764.94
2023-04-07T11:10:39.545Z,100757.66
2023-04-07T11:13:15.989Z,100751.13
2023-04-07T11:15:50.727Z,100755.19
2023-04-07T11:18:20.837Z,100752.38
2023-04-07T11:21:03.183Z,100746.28
2023-04-07T11:23:30.844Z,100747.50
2023-04-07T11:26:03.098Z,100747.88
2023-04-07T11:28:33.576Z,100745.03
2023-04-07T11:31:05.155Z,100742.22
2023-04-07T11:33:37.250Z,100740.56
2023-04-07T11:36:09.792Z,100742.59
2023-04-07T11:38:47.153Z,100745.03
2023-04-07T11:41:16.000Z,100746.22
2023-04-07T11:43:51.063Z,100736.56
2023-04-07T11:46:30.475Z,100738.16
2023-04-07T11:49:18.858Z,100739.75
2023-04-07T11:52:03.310Z,100734.88
2023-04-07T11:54:49.961Z,100729.25
2023-04-07T11:57:26.190Z,100730.09
2023-04-07T12:00:15.898Z,100732.50
2023-04-07T12:02:50.110Z,100724.09
2023-04-07T12:05:27.093Z,100724.91
2023-04-07T12:07:55.675Z,100718.84
2023-04-07T12:10:26.469Z,100725.69
2023-04-07T12:12:59.441Z,100724.47
2023-04-07T12:15:39.007Z,100716.41
2023-04-07T12:18:17.451Z,100717.22
2023-04-07T12:20:56.843Z,100727.31
2023-04-07T12:23:30.722Z,100716.81
2023-04-07T12:26:04.027Z,100715.63
2023-04-07T12:28:43.359Z,100710.34
2023-04-07T12:31:20.665Z,100714.75
2023-04-07T12:34:06.792Z,100713.97
2023-04-07T12:36:40.346Z,100711.56
2023-04-07T12:39:24.892Z,100710.75
2023-04-07T12:41:54.197Z,100713.19
2023-04-07T12:44:30.555Z,100705.56
2023-04-07T12:47:11.104Z,100702.66
2023-04-07T12:49:49.700Z,100705.50
2023-04-07T12:52:33.871Z,100701.44
2023-04-07T12:55:16.892Z,100701.84
2023-04-07T12:57:56.012Z,100695.75
2023-04-07T13:00:39.166Z,100698.66
2023-04-07T13:03:18.600Z,100701.06
2023-04-07T13:05:52.783Z,100688.97
2023-04-07T13:08:29.675Z,100692.56
2023-04-07T13:11:07.709Z,100693.78
2023-04-07T13:13:44.549Z,100690.56
2023-04-07T13:16:25.047Z,100684.91
2023-04-07T13:19:09.905Z,100682.88
2023-04-07T13:21:47.288Z,100682.44
2023-04-07T13:24:30.617Z,100684.88
2023-04-07T13:27:08.963Z,100683.66
2023-04-07T13:29:41.780Z,100685.66
2023-04-07T13:32:18.640Z,100683.25
2023-04-07T13:34:51.687Z,100684.06
2023-04-07T13:37:24.936Z,100683.28
2023-04-07T13:40:01.882Z,100679.22
2023-04-07T13:42:37.803Z,100680.03
2023-04-07T13:45:23.283Z,100670.75
2023-04-07T13:47:57.662Z,100664.69
2023-04-07T13:50:36.007Z,100670.75
2023-04-07T13:53:04.093Z,100664.69
2023-04-07T13:55:41.223Z,100668.72
2023-04-07T13:58:20.944Z,100660.63
2023-04-07T14:00:53.691Z,100662.28
2023-04-07T14:03:26.435Z,100661.06
2023-04-07T14:06:03.062Z,100658.25
2023-04-07T14:08:38.704Z,100655.03
2023-04-07T14:11:12.565Z,100654.59
2023-04-07T14:13:49.406Z,100659.44
2023-04-07T14:16:19.908Z,100659.06
2023-04-07T14:18:49.462Z,100653.78
2023-04-07T14:21:20.042Z,100653.38
2023-04-07T14:23:58.804Z,100659.03
2023-04-07T14:26:32.253Z,100656.22
2023-04-07T14:29:15.026Z,100662.66
2023-04-07T14:31:42.902Z,100658.63
2023-04-07T14:34:22.401Z,100657.41
2023-04-07T14:37:01.723Z,100659.81
2023-04-07T14:39:37.804Z,100654.16
2023-04-07T14:42:23.562Z,100653.34
2023-04-07T14:44:53.308Z,100654.19
2023-04-07T14:47:32.993Z,100653.78
2023-04-07T14:50:08.727Z,100649.31
2023-04-07T14:52:43.663Z,100651.75
2023-04-07T14:55:12.117Z,100650.53
2023-04-07T14:57:47.120Z,100643.66
2023-04-07T15:00:25.448Z,100644.88
2023-04-07T15:03:01.335Z,100648.50
2023-04-07T15:05:38.861Z,100648.50
2023-04-07T15:08:12.314Z,100652.13
2023-04-07T15:10:45.742Z,100652.94
2023-04-07T15:13:24.350Z,100649.31
2023-04-07T15:15:55.435Z,100654.16
2023-04-07T15:18:28.790Z,100652.13
2023-04-07T15:21:06.765Z,100657.75
2023-04-07T15:23:38.299Z,100649.69
2023-04-07T15:26:11.971Z,100648.88
2023-04-07T15:28:51.322Z,100650.47
2023-04-07T15:31:28.765Z,100648.06
2023-04-07T15:34:10.362Z,100640.81
2023-04-07T15:36:48.984Z,100651.31
2023-04-07T15:39:26.695Z,100635.16
2023-04-07T15:42:05.903Z,100629.88
2023-04-07T15:44:42.149Z,100628.25
2023-04-07T15:47:22.486Z,100617.41
2023-04-07T15:50:02.103Z,100633.50
2023-04-07T15:52:34.447Z,100635.53
2023-04-07T15:55:11.798Z,100630.66
2023-04-07T15:57:56.688Z,100639.16
2023-04-07T16:00:38.270Z,100636.34
2023-04-07T16:03:16.252Z,100635.50
2023-04-07T16:05:55.976Z,100637.94
2023-04-07T16:08:29.292Z,100629.06
2023-04-07T16:11:13.837Z,100633.47
2023-04-07T16:13:51.193Z,100628.22
2023-04-07T16:16:29.818Z,100628.63
2023-04-07T16:19:04.252Z,100638.69
2023-04-07T16:21:42.985Z,100644.38
2023-04-07T16:24:21.752Z,100630.63
2023-04-07T16:29:45.413Z,100643.19
2023-04-07T16:32:27.705Z,100643.56
2023-04-07T16:35:11.673Z,100635.88
2023-04-07T16:37:50.442Z,100632.66
2023-04-07T16:40:35.260Z,100633.84
2023-04-07T16:43:13.032Z,100642.31
2023-04-07T16:46:06.467Z,100643.06
2023-04-07T16:48:52.690Z,100643.16
2023-04-07T16:51:30.733Z,100650.00
2023-04-07T16:54:17.574Z,100646.78
2023-04-07T16:56:51.832Z,100649.97
2023-04-07T16:59:37.918Z,100650.78
2023-04-07T17:02:19.406Z,100648.38
2023-04-07T17:04:55.843Z,100652.81
2023-04-07T17:07:34.843Z,100655.16
2023-04-07T17:10:14.582Z,100656.44
2023-04-07T17:12:56.365Z,100655.16
2023-04-07T17:15:31.747Z,100663.25
2023-04-07T17:18:08.018Z,100668.13
2023-04-07T17:20:46.748Z,100665.66
2023-04-07T17:23:28.611Z,100662.81
2023-04-07T17:26:07.964Z,100664.81
2023-04-07T17:28:52.796Z,100671.28
2023-04-07T17:31:35.851Z,100676.09
2023-04-07T17:34:14.681Z,100677.72
2023-04-07T17:36:51.387Z,100677.31
2023-04-07T17:39:27.065Z,100683.34
2023-04-07T17:42:05.317Z,100681.34
2023-04-07T17:44:44.869Z,100685.75
2023-04-07T17:47:28.434Z,100682.91
2023-04-07T17:50:02.857Z,100690.59
2023-04-07T17:52:47.116Z,100686.19
2023-04-07T17:55:23.349Z,100693.41
2023-04-07T17:58:09.880Z,100693.81
2023-04-07T18:00:47.273Z,100693.38
2023-04-07T18:03:34.245Z,100695.38
2023-04-07T18:06:08.515Z,100692.56
2023-04-07T18:09:00.926Z,100699.81
2023-04-07T18:11:38.975Z,100699.38
2023-04-07T18:14:20.256Z,100707.47
2023-04-07T18:16:54.721Z,100709.50
2023-04-07T18:19:33.864Z,100722.81
2023-04-07T18:22:30.202Z,100721.13
2023-04-07T18:25:11.448Z,100719.94
2023-04-07T18:27:52.334Z,100723.97
2023-04-07T18:30:30.459Z,100731.16
2023-04-07T18:33:14.416Z,100729.94
2023-04-07T18:35:58.219Z,100736.81
2023-04-07T18:38:42.841Z,100741.66
2023-04-07T18:41:19.443Z,100743.25
2023-04-07T18:43:57.956Z,100748.06
2023-04-07T18:46:40.447Z,100746.47
2023-04-07T18:49:28.560Z,100756.16
2023-04-07T18:52:06.952Z,100759.41
2023-04-07T18:54:48.441Z,100758.59
2023-04-07T18:57:27.009Z,100757.31
2023-04-07T19:00:05.365Z,100762.94
2023-04-07T19:02:49.060Z,100764.16
2023-04-07T19:05:26.953Z,100762.94
2023-04-07T19:08:08.998Z,100773.41
2023-04-07T19:10:47.775Z,100773.75
2023-04-07T19:13:30.067Z,100779.44
2023-04-07T19:16:20.899Z,100788.72
2023-04-07T19:19:01.052Z,100797.25
2023-04-07T19:21:45.437Z,100804.00
2023-04-07T19:24:28.008Z,100805.66
2023-04-07T19:27:12.802Z,100816.06
2023-04-07T19:29:56.371Z,100820.56
2023-04-07T19:32:38.010Z,100829.41
2023-04-07T19:35:24.504Z,100820.47
2023-04-07T19:38:05.321Z,100823.72
2023-04-07T19:40:48.572Z,100819.28
2023-04-07T19:43:27.553Z,100828.94
2023-04-07T19:46:08.972Z,100829.38
2023-04-07T19:48:47.061Z,100827.31
2023-04-07T19:51:32.990Z,100822.09
2023-04-07T19:54:17.539Z,100826.13
2023-04-07T19:56:50.614Z,100837.38
2023-04-07T19:59:37.387Z,100835.38
2023-04-07T20:02:18.140Z,100843.06
2023-04-07T20:04:53.905Z,100839.38
2023-04-07T20:07:39.557Z,100847.03
2023-04-07T20:10:25.599Z,100849.50
2023-04-07T20:13:10.376Z,100846.59
2023-04-07T20:15:46.862Z,100851.03
2023-04-07T20:18:31.335Z,100848.66
2023-04-07T20:21:13.305Z,100843.38
2023-04-07T20:23:57.311Z,100849.84
2023-04-07T20:26:37.132Z,100845.41
2023-04-07T20:29:18.688Z,100848.19
2023-04-07T20:32:11.182Z,100845.41
2023-04-07T20:34:52.165Z,100845.41
2023-04-07T20:37:30.257Z,100839.72
2023-04-07T20:40:09.099Z,100846.91
2023-04-07T20:42:53.133Z,100846.09
2023-04-07T20:45:31.392Z,100840.94
2023-04-07T20:48:09.579Z,100840.47
2023-04-07T20:50:55.202Z,100845.66
2023-04-07T20:53:38.114Z,100847.25
2023-04-07T20:56:16.556Z,100844.88
2023-04-07T20:59:04.257Z,100846.47
2023-04-07T21:01:40.029Z,100844.91
2023-04-07T21:04:28.477Z,100839.59
2023-04-07T21:07:13.957Z,100841.19
2023-04-07T21:10:01.544Z,100846.00
2023-04-07T21:12:42.267Z,100843.16
2023-04-07T21:15:23.185Z,100841.97
2023-04-07T21:18:12.272Z,100828.25
2023-04-07T21:20:54.265Z,100837.50
2023-04-07T21:23:31.280Z,100838.31
2023-04-07T21:26:10.137Z,100839.91
2023-04-07T21:28:56.041Z,100832.22
2023-04-07T21:31:36.654Z,100826.19
2023-04-07T21:34:20.619Z,100834.63
2023-04-07T21:37:02.562Z,100829.75
2023-04-07T21:39:46.935Z,100826.56
2023-04-07T21:42:33.481Z,100827.34
2023-04-07T21:45:08.917Z,100826.97
2023-04-07T21:47:47.524Z,100829.38
2023-04-07T21:50:27.220Z,100821.72
2023-04-07T21:53:11.472Z,100814.06
2023-04-07T21:55:50.404Z,100813.25
2023-04-07T21:58:26.214Z,100805.97
2023-04-07T22:01:02.231Z,100814.03
2023-04-07T22:03:46.584Z,100811.56
2023-04-07T22:06:34.194Z,100803.94
2023-04-07T22:09:16.215Z,100807.59
2023-04-07T22:11:54.810Z,100811.56
2023-04-07T22:14:50.096Z,100817.66
2023-04-07T22:17:30.679Z,100808.34
2023-04-07T22:20:12.412Z,100810.41
2023-04-07T22:22:57.291Z,100817.22
2023-04-07T22:25:40.208Z,100814.41
2023-04-07T22:28:19.644Z,100817.22
2023-04-07T22:31:03.964Z,100808.34
2023-04-07T22:33:51.700Z,100819.19
2023-04-07T22:36:28.222Z,100813.56
2023-04-07T22:39:11.237Z,100816.78
2023-04-07T22:41:53.699Z,100826.00
2023-04-07T22:44:35.620Z,100824.78
2023-04-07T22:47:17.236Z,100817.91
2023-04-07T22:49:58.538Z,100825.13
2023-04-07T22:52:36.342Z,100821.09
2023-04-07T22:55:21.278Z,100819.44
2023-04-07T22:58:00.884Z,100827.91
2023-04-07T23:00:45.168Z,100827.06
2023-04-07T23:03:32.044Z,100828.25
2023-04-07T23:06:15.781Z,100824.25
2023-04-07T23:08:52.651Z,100822.22
2023-04-07T23:11:36.739Z,100829.06
2023-04-07T23:14:24.707Z,100830.25
2023-04-07T23:17:14.531Z,100825.00
2023-04-07T23:19:58.874Z,100837.47
2023-04-07T23:22:37.202Z,100824.16
2023-04-07T23:25:14.665Z,100838.25
2023-04-07T23:27:59.046Z,100832.63
2023-04-07T23:30:39.649Z,100835.44
2023-04-07T23:33:21.215Z,100840.63
2023-04-07T23:36:06.257Z,100830.56
2023-04-07T23:38:51.061Z,100838.22
2023-04-07T23:41:41.662Z,100829.31
2023-04-07T23:44:31.582Z,100824.44
2023-04-07T23:47:12.558Z,100818.84
2023-04-07T23:49:52.876Z,100825.69
2023-04-07T23:52:37.721Z,100830.97
2023-04-07T23:55:15.155Z,100831.31
2023-04-07T23:58:01.769Z,100836.25
